createdAt,value
2022-10-17T00:01:30.719Z,14.16
2022-10-17T00:03:57.160Z,14.26
2022-10-17T00:06:23.579Z,14.12
2022-10-17T00:08:49.995Z,14.17
2022-10-17T00:11:19.318Z,14.08
2022-10-17T00:13:46.983Z,14.10
2022-10-17T00:16:13.981Z,14.11
2022-10-17T00:18:40.752Z,14.09
2022-10-17T00:21:15.334Z,14.04
2022-10-17T00:23:41.679Z,14.01
2022-10-17T00:26:08.038Z,13.93
2022-10-17T00:28:34.467Z,14.01
2022-10-17T00:31:04.413Z,13.97
2022-10-17T00:33:32.297Z,14.00
2022-10-17T00:36:09.370Z,13.98
2022-10-17T00:38:37.105Z,14.04
2022-10-17T00:41:04.517Z,14.02
2022-10-17T00:43:56.552Z,14.05
2022-10-17T00:46:26.047Z,14.05
2022-10-17T00:48:54.602Z,14.13
2022-10-17T00:51:27.581Z,14.11
2022-10-17T00:53:54.001Z,14.14
2022-10-17T00:56:21.199Z,14.16
2022-10-17T00:58:48.115Z,14.19
2022-10-17T01:01:14.683Z,14.23
2022-10-17T01:03:41.200Z,14.33
2022-10-17T01:06:07.599Z,14.36
2022-10-17T01:08:34.581Z,14.33
2022-10-17T01:11:13.666Z,14.32
2022-10-17T01:13:51.738Z,14.35
2022-10-17T01:16:31.629Z,14.39
2022-10-17T01:19:36.336Z,14.38
2022-10-17T01:22:22.810Z,14.35
2022-10-17T01:25:07.926Z,14.40
2022-10-17T01:27:46.990Z,14.46
2022-10-17T01:31:04.563Z,14.39
2022-10-17T01:33:33.453Z,14.40
2022-10-17T01:36:23.785Z,14.47
2022-10-17T01:39:02.094Z,14.57
2022-10-17T01:41:37.258Z,14.58
2022-10-17T01:44:19.546Z,14.60
2022-10-17T01:46:52.207Z,14.63
2022-10-17T01:49:23.802Z,14.65
2022-10-17T01:51:56.460Z,14.66
2022-10-17T01:54:28.613Z,14.61
2022-10-17T01:57:03.686Z,14.61
2022-10-17T01:59:47.222Z,14.66
2022-10-17T02:02:15.519Z,14.71
2022-10-17T02:04:43.010Z,14.66
2022-10-17T02:07:11.316Z,14.72
2022-10-17T02:09:38.366Z,14.73
2022-10-17T02:12:13.739Z,14.73
2022-10-17T02:14:52.487Z,14.69
2022-10-17T02:17:43.562Z,14.75
2022-10-17T02:20:20.296Z,14.74
2022-10-17T02:22:57.406Z,14.76
2022-10-17T02:25:35.614Z,14.77
2022-10-17T02:28:19.916Z,14.76
2022-10-17T02:30:56.083Z,14.75
2022-10-17T02:33:35.068Z,14.70
2022-10-17T02:36:08.797Z,14.68
2022-10-17T02:38:35.614Z,14.69
2022-10-17T02:41:03.616Z,14.70
2022-10-17T02:43:30.217Z,14.74
2022-10-17T02:45:57.242Z,14.74
2022-10-17T02:48:42.366Z,14.80
2022-10-17T02:51:37.779Z,14.75
2022-10-17T02:54:26.496Z,14.80
2022-10-17T02:57:02.273Z,14.75
2022-10-17T03:02:04.113Z,14.74
2022-10-17T03:04:30.479Z,14.74
2022-10-17T03:06:56.893Z,14.72
2022-10-17T03:09:23.251Z,14.74
2022-10-17T03:11:49.606Z,14.72
2022-10-17T03:14:15.976Z,14.74
2022-10-17T03:16:42.374Z,14.75
2022-10-17T03:19:08.841Z,14.72
2022-10-17T03:21:37.374Z,14.67
2022-10-17T03:24:04.744Z,14.69
2022-10-17T03:26:31.159Z,14.79
2022-10-17T03:28:57.634Z,14.82
2022-10-17T03:31:24.088Z,14.84
2022-10-17T03:33:50.442Z,14.85
2022-10-17T03:36:18.291Z,14.93
2022-10-17T03:38:45.285Z,14.96
2022-10-17T03:41:12.324Z,14.99
2022-10-17T03:43:42.247Z,15.03
2022-10-17T03:46:08.735Z,15.04
2022-10-17T03:48:35.175Z,15.10
2022-10-17T03:51:04.218Z,15.06
2022-10-17T03:53:30.853Z,15.05
2022-10-17T03:55:57.960Z,15.10
2022-10-17T03:58:24.385Z,15.16
2022-10-17T04:00:50.840Z,15.16
2022-10-17T04:03:17.514Z,15.15
2022-10-17T04:05:43.931Z,15.19
2022-10-17T04:08:10.310Z,15.16
2022-10-17T04:10:36.669Z,15.18
2022-10-17T04:13:03.108Z,15.22
2022-10-17T04:15:29.453Z,15.31
2022-10-17T04:17:55.896Z,15.28
2022-10-17T04:20:22.355Z,15.28
2022-10-17T04:22:48.713Z,15.25
2022-10-17T04:25:15.239Z,15.25
2022-10-17T04:27:41.595Z,15.23
2022-10-17T04:30:08.213Z,15.24
2022-10-17T04:32:38.561Z,15.26
2022-10-17T04:35:05.429Z,15.30
2022-10-17T04:37:31.821Z,15.38
2022-10-17T04:39:58.177Z,15.31
2022-10-17T04:42:24.546Z,15.31
2022-10-17T04:44:50.905Z,15.29
2022-10-17T04:47:17.250Z,15.28
2022-10-17T04:49:43.617Z,15.26
2022-10-17T04:52:09.976Z,15.32
2022-10-17T04:54:36.343Z,15.29
2022-10-17T04:57:02.748Z,15.30
2022-10-17T04:59:29.248Z,15.30
2022-10-17T05:01:55.629Z,15.25
2022-10-17T05:04:24.712Z,15.26
2022-10-17T05:06:51.478Z,15.21
2022-10-17T05:09:17.991Z,15.20
2022-10-17T05:11:44.384Z,15.26
2022-10-17T05:14:10.757Z,15.22
2022-10-17T05:16:37.173Z,15.18
2022-10-17T05:19:03.601Z,15.17
2022-10-17T05:21:30.690Z,15.12
2022-10-17T05:23:57.646Z,15.16
2022-10-17T05:26:24.770Z,15.19
2022-10-17T05:28:52.589Z,15.23
2022-10-17T05:31:19.304Z,15.25
2022-10-17T05:33:45.941Z,15.26
2022-10-17T05:36:12.459Z,15.24
2022-10-17T05:38:38.877Z,15.20
2022-10-17T05:41:06.160Z,15.24
2022-10-17T05:43:34.111Z,15.22
2022-10-17T05:46:04.496Z,15.24
2022-10-17T05:48:30.931Z,15.22
2022-10-17T05:50:59.803Z,15.24
2022-10-17T05:53:26.513Z,15.24
2022-10-17T05:56:00.349Z,15.22
2022-10-17T06:01:14.505Z,15.27
2022-10-17T06:03:40.991Z,15.28
2022-10-17T06:06:10.182Z,15.27
2022-10-17T06:08:36.947Z,15.27
2022-10-17T06:11:06.140Z,15.30
2022-10-17T06:13:35.639Z,15.31
2022-10-17T06:16:02.040Z,15.33
2022-10-17T06:18:28.501Z,15.31
2022-10-17T06:20:54.905Z,15.33
2022-10-17T06:23:21.340Z,15.30
2022-10-17T06:25:47.687Z,15.30
2022-10-17T06:28:14.056Z,15.32
2022-10-17T06:30:41.275Z,15.32
2022-10-17T06:33:07.682Z,15.32
2022-10-17T06:35:34.048Z,15.35
2022-10-17T06:38:00.440Z,15.37
2022-10-17T06:40:26.837Z,15.43
2022-10-17T06:42:53.328Z,15.43
2022-10-17T06:45:19.695Z,15.47
2022-10-17T06:47:46.053Z,15.45
2022-10-17T06:50:12.421Z,15.47
2022-10-17T06:52:39.403Z,15.49
2022-10-17T06:55:06.270Z,15.51
2022-10-17T06:57:32.719Z,15.49
2022-10-17T06:59:59.199Z,15.53
2022-10-17T07:02:25.910Z,15.55
2022-10-17T07:04:52.515Z,15.57
2022-10-17T07:07:19.369Z,15.55
2022-10-17T07:09:45.721Z,15.59
2022-10-17T07:12:12.812Z,15.60
2022-10-17T07:14:39.267Z,15.64
2022-10-17T07:17:05.731Z,15.64
2022-10-17T07:19:32.413Z,15.66
2022-10-17T07:21:58.823Z,15.68
2022-10-17T07:24:25.326Z,15.72
2022-10-17T07:26:51.698Z,15.74
2022-10-17T07:29:18.134Z,15.77
2022-10-17T07:31:45.662Z,15.80
2022-10-17T07:34:12.080Z,15.82
2022-10-17T07:36:38.449Z,15.83
2022-10-17T07:39:04.956Z,15.83
2022-10-17T07:41:31.356Z,15.87
2022-10-17T07:43:57.992Z,15.84
2022-10-17T07:46:24.359Z,15.83
2022-10-17T07:48:51.161Z,15.79
2022-10-17T07:51:19.998Z,15.78
2022-10-17T07:53:48.779Z,15.75
2022-10-17T07:56:15.498Z,15.74
2022-10-17T07:58:41.867Z,15.73
2022-10-17T08:01:15.434Z,15.73
2022-10-17T08:03:44.752Z,15.74
2022-10-17T08:06:11.771Z,15.72
2022-10-17T08:08:38.197Z,15.75
2022-10-17T08:11:07.205Z,15.72
2022-10-17T08:13:34.053Z,15.71
2022-10-17T08:16:07.398Z,15.71
2022-10-17T08:18:35.033Z,15.71
2022-10-17T08:21:08.374Z,15.76
2022-10-17T08:23:35.947Z,15.79
2022-10-17T08:26:04.637Z,15.80
2022-10-17T08:28:31.128Z,15.77
2022-10-17T08:31:08.273Z,15.77
2022-10-17T08:33:35.135Z,15.77
2022-10-17T08:36:01.853Z,15.75
2022-10-17T08:38:31.998Z,15.76
2022-10-17T08:41:05.193Z,15.79
2022-10-17T08:43:47.581Z,15.80
2022-10-17T08:48:46.535Z,15.78
2022-10-17T08:51:13.212Z,15.81
2022-10-17T08:53:39.584Z,15.81
2022-10-17T08:56:19.840Z,15.85
2022-10-17T08:58:51.790Z,15.84
2022-10-17T09:01:24.277Z,15.84
2022-10-17T09:04:23.896Z,15.88
2022-10-17T09:07:16.384Z,15.89
2022-10-17T09:10:17.085Z,15.88
2022-10-17T09:12:43.379Z,15.88
2022-10-17T09:15:34.057Z,15.88
2022-10-17T09:18:13.202Z,15.90
2022-10-17T09:20:47.503Z,15.89
2022-10-17T09:23:19.882Z,15.88
2022-10-17T09:25:53.712Z,15.86
2022-10-17T09:28:33.433Z,15.86
2022-10-17T09:31:03.252Z,15.86
2022-10-17T09:33:59.972Z,15.84
2022-10-17T09:36:33.771Z,15.79
2022-10-17T09:39:12.781Z,15.78
2022-10-17T09:41:45.820Z,15.73
2022-10-17T09:44:21.675Z,15.76
2022-10-17T09:47:02.891Z,15.76
2022-10-17T09:49:34.328Z,15.76
2022-10-17T09:52:03.238Z,15.78
2022-10-17T09:54:43.523Z,15.78
2022-10-17T09:57:12.453Z,15.81
2022-10-17T09:59:47.647Z,15.81
2022-10-17T10:02:13.930Z,15.89
2022-10-17T10:05:07.564Z,15.91
2022-10-17T10:07:37.712Z,15.85
2022-10-17T10:10:07.581Z,15.87
2022-10-17T10:12:39.213Z,15.89
2022-10-17T10:15:31.182Z,15.84
2022-10-17T10:17:57.585Z,15.89
2022-10-17T10:20:28.285Z,15.84
2022-10-17T10:23:05.176Z,15.83
2022-10-17T10:25:31.562Z,15.87
2022-10-17T10:28:00.666Z,15.86
2022-10-17T10:30:32.796Z,15.85
2022-10-17T10:33:01.571Z,15.85
2022-10-17T10:35:36.290Z,15.94
2022-10-17T10:38:14.061Z,15.96
2022-10-17T10:40:52.986Z,15.95
2022-10-17T10:43:22.443Z,15.93
2022-10-17T10:45:49.438Z,15.94
2022-10-17T10:48:24.571Z,15.94
2022-10-17T10:51:23.520Z,15.98
2022-10-17T10:53:59.689Z,15.99
2022-10-17T10:56:33.906Z,15.98
2022-10-17T10:59:25.447Z,15.98
2022-10-17T11:01:55.021Z,15.99
2022-10-17T11:04:44.586Z,15.99
2022-10-17T11:07:22.559Z,15.99
2022-10-17T11:10:00.839Z,15.96
2022-10-17T11:12:38.943Z,15.98
2022-10-17T11:15:18.205Z,16.00
2022-10-17T11:18:22.148Z,16.02
2022-10-17T11:21:01.565Z,16.06
2022-10-17T11:23:34.289Z,16.08
2022-10-17T11:26:08.540Z,16.08
2022-10-17T11:28:35.115Z,16.10
2022-10-17T11:31:07.180Z,16.08
2022-10-17T11:33:46.625Z,16.19
2022-10-17T11:36:16.784Z,16.19
2022-10-17T11:38:46.769Z,16.17
2022-10-17T11:41:21.233Z,16.22
2022-10-17T11:43:57.509Z,16.25
2022-10-17T11:46:26.810Z,16.26
2022-10-17T11:49:19.826Z,16.22
2022-10-17T11:52:44.033Z,16.24
2022-10-17T11:55:18.574Z,16.26
2022-10-17T11:58:10.012Z,16.35
2022-10-17T12:00:49.895Z,16.33
2022-10-17T12:03:41.382Z,16.33
2022-10-17T12:06:46.881Z,16.39
2022-10-17T12:09:25.454Z,16.46
2022-10-17T12:11:58.153Z,16.63
2022-10-17T12:14:37.137Z,16.63
2022-10-17T12:17:06.000Z,16.60
2022-10-17T12:19:35.118Z,16.57
2022-10-17T12:22:23.414Z,16.54
2022-10-17T12:24:55.089Z,16.51
2022-10-17T12:27:43.622Z,16.53
2022-10-17T12:30:13.517Z,16.57
2022-10-17T12:33:07.438Z,16.57
2022-10-17T12:35:36.309Z,16.54
2022-10-17T12:38:17.600Z,16.55
2022-10-17T12:40:48.490Z,16.47
2022-10-17T12:43:15.381Z,16.50
2022-10-17T12:45:55.838Z,16.47
2022-10-17T12:48:34.372Z,16.45
2022-10-17T12:51:34.042Z,16.39
2022-10-17T12:54:15.871Z,16.40
2022-10-17T12:56:45.760Z,16.40
2022-10-17T12:59:25.787Z,16.43
2022-10-17T13:01:56.329Z,16.46
2022-10-17T13:04:23.955Z,16.59
2022-10-17T13:06:56.491Z,16.61
2022-10-17T13:09:28.310Z,16.61
2022-10-17T13:11:57.469Z,16.59
2022-10-17T13:14:25.613Z,16.56
2022-10-17T13:16:54.794Z,16.60
2022-10-17T13:19:24.896Z,16.54
2022-10-17T13:21:56.134Z,16.50
2022-10-17T13:24:34.786Z,16.58
2022-10-17T13:27:01.967Z,16.63
2022-10-17T13:29:30.829Z,16.61
2022-10-17T13:32:04.377Z,16.60
2022-10-17T13:34:32.639Z,16.56
2022-10-17T13:37:02.715Z,16.51
2022-10-17T13:39:45.628Z,16.51
2022-10-17T13:42:27.343Z,16.57
2022-10-17T13:44:55.022Z,16.62
2022-10-17T13:47:27.559Z,16.71
2022-10-17T13:49:55.688Z,16.73
2022-10-17T13:52:27.434Z,16.72
2022-10-17T13:54:55.758Z,16.70
2022-10-17T13:57:28.032Z,16.74
2022-10-17T14:00:09.868Z,16.78
2022-10-17T14:02:38.292Z,16.76
2022-10-17T14:05:23.610Z,16.76
2022-10-17T14:10:42.172Z,16.90
2022-10-17T14:13:20.919Z,16.86
2022-10-17T14:15:47.540Z,16.90
2022-10-17T14:18:19.601Z,16.92
2022-10-17T14:21:31.799Z,16.98
2022-10-17T14:23:38.460Z,16.81
2022-10-17T14:26:09.093Z,16.90
2022-10-17T14:28:36.093Z,16.95
2022-10-17T14:31:33.705Z,17.01
2022-10-17T14:34:02.860Z,16.95
2022-10-17T14:36:42.871Z,17.02
2022-10-17T14:39:20.596Z,17.01
2022-10-17T14:41:47.909Z,17.01
2022-10-17T14:44:25.563Z,16.89
2022-10-17T14:47:30.122Z,16.97
2022-10-17T14:49:52.412Z,16.92
2022-10-17T14:52:19.158Z,16.87
2022-10-17T14:54:49.688Z,16.85
2022-10-17T14:57:29.839Z,16.86
2022-10-17T14:59:57.311Z,16.78
2022-10-17T15:02:29.748Z,16.80
2022-10-17T15:04:56.523Z,16.82
2022-10-17T15:07:23.900Z,16.81
2022-10-17T15:09:52.709Z,16.84
2022-10-17T15:12:21.816Z,16.81
2022-10-17T15:14:48.538Z,16.80
2022-10-17T15:17:20.913Z,16.83
2022-10-17T15:19:48.073Z,16.86
2022-10-17T15:22:16.058Z,16.87
2022-10-17T15:24:42.535Z,16.86
2022-10-17T15:27:26.384Z,16.77
2022-10-17T15:29:53.044Z,16.80
2022-10-17T15:32:19.465Z,16.82
2022-10-17T15:34:45.895Z,16.85
2022-10-17T15:37:24.623Z,16.84
2022-10-17T15:39:55.033Z,16.85
2022-10-17T15:42:23.351Z,16.79
2022-10-17T15:44:50.262Z,16.76
2022-10-17T15:47:28.826Z,16.72
2022-10-17T15:49:55.612Z,16.72
2022-10-17T15:52:23.484Z,16.65
2022-10-17T15:54:49.847Z,16.66
2022-10-17T15:57:21.346Z,16.58
2022-10-17T15:59:49.145Z,16.50
2022-10-17T16:02:17.774Z,16.54
2022-10-17T16:04:44.950Z,16.50
2022-10-17T16:07:11.793Z,16.50
2022-10-17T16:09:38.220Z,16.44
2022-10-17T16:12:06.706Z,16.41
2022-10-17T16:14:33.087Z,16.37
2022-10-17T16:17:00.160Z,16.33
2022-10-17T16:19:29.793Z,16.27
2022-10-17T16:21:59.643Z,16.27
2022-10-17T16:24:28.857Z,16.30
2022-10-17T16:26:55.283Z,16.31
2022-10-17T16:29:21.682Z,16.27
2022-10-17T16:31:48.064Z,16.27
2022-10-17T16:34:15.564Z,16.24
2022-10-17T16:36:42.658Z,16.20
2022-10-17T16:39:09.432Z,16.17
2022-10-17T16:41:38.242Z,16.21
2022-10-17T16:44:07.226Z,16.21
2022-10-17T16:46:35.684Z,16.22
2022-10-17T16:49:04.669Z,16.25
2022-10-17T16:54:12.797Z,16.26
2022-10-17T16:56:39.220Z,16.27
2022-10-17T16:59:05.618Z,16.22
2022-10-17T17:01:32.046Z,16.22
2022-10-17T17:03:58.498Z,16.23
2022-10-17T17:06:29.409Z,16.17
2022-10-17T17:08:56.486Z,16.13
2022-10-17T17:11:25.024Z,16.10
2022-10-17T17:13:51.794Z,16.06
2022-10-17T17:16:23.331Z,16.00
2022-10-17T17:18:55.232Z,15.98
2022-10-17T17:21:21.857Z,16.01
2022-10-17T17:23:48.347Z,16.01
2022-10-17T17:26:17.659Z,15.99
2022-10-17T17:28:44.573Z,15.99
2022-10-17T17:31:17.154Z,15.96
2022-10-17T17:33:44.692Z,15.94
2022-10-17T17:36:14.975Z,15.96
2022-10-17T17:38:41.392Z,15.94
2022-10-17T17:41:07.828Z,15.92
2022-10-17T17:43:35.751Z,15.88
2022-10-17T17:46:02.311Z,15.88
2022-10-17T17:48:28.729Z,15.82
2022-10-17T17:50:55.109Z,15.85
2022-10-17T17:53:21.546Z,15.77
2022-10-17T17:55:47.914Z,15.74
2022-10-17T17:58:14.456Z,15.75
2022-10-17T18:00:40.981Z,15.77
2022-10-17T18:03:08.177Z,15.76
2022-10-17T18:05:34.647Z,15.74
2022-10-17T18:08:01.220Z,15.72
2022-10-17T18:10:29.317Z,15.77
2022-10-17T18:12:55.671Z,15.74
2022-10-17T18:15:22.107Z,15.75
2022-10-17T18:17:49.124Z,15.73
2022-10-17T18:20:15.855Z,15.74
2022-10-17T18:22:42.246Z,15.74
2022-10-17T18:25:08.776Z,15.74
2022-10-17T18:27:35.389Z,15.75
2022-10-17T18:30:01.731Z,15.73
2022-10-17T18:32:31.465Z,15.73
2022-10-17T18:34:58.499Z,15.70
2022-10-17T18:37:24.970Z,15.69
2022-10-17T18:39:53.993Z,15.69
2022-10-17T18:42:20.485Z,15.65
2022-10-17T18:44:47.369Z,15.67
2022-10-17T18:47:14.109Z,15.65
2022-10-17T18:49:40.472Z,15.65
2022-10-17T18:52:06.965Z,15.64
2022-10-17T18:54:34.632Z,15.65
2022-10-17T18:57:01.264Z,15.62
2022-10-17T18:59:27.712Z,15.62
2022-10-17T19:01:54.323Z,15.62
2022-10-17T19:04:20.819Z,15.59
2022-10-17T19:06:47.185Z,15.62
2022-10-17T19:09:14.696Z,15.61
2022-10-17T19:11:42.226Z,15.58
2022-10-17T19:14:13.389Z,15.60
2022-10-17T19:16:43.614Z,15.57
2022-10-17T19:19:17.292Z,15.58
2022-10-17T19:21:44.246Z,15.53
2022-10-17T19:24:19.775Z,15.52
2022-10-17T19:26:47.590Z,15.50
2022-10-17T19:29:15.268Z,15.55
2022-10-17T19:31:41.761Z,15.55
2022-10-17T19:34:08.229Z,15.55
2022-10-17T19:36:35.473Z,15.56
2022-10-17T19:39:08.574Z,15.48
2022-10-17T19:41:36.323Z,15.51
2022-10-17T19:44:02.796Z,15.54
2022-10-17T19:46:31.004Z,15.53
2022-10-17T19:48:57.828Z,15.51
2022-10-17T19:51:25.053Z,15.51
2022-10-17T19:53:52.864Z,15.47
2022-10-17T19:56:23.573Z,15.46
2022-10-17T19:58:50.845Z,15.41
2022-10-17T20:01:21.636Z,15.36
2022-10-17T20:03:48.430Z,15.39
2022-10-17T20:06:15.749Z,15.41
2022-10-17T20:08:42.312Z,15.38
2022-10-17T20:11:12.482Z,15.39
2022-10-17T20:13:39.571Z,15.40
2022-10-17T20:16:07.884Z,15.42
2022-10-17T20:18:35.138Z,15.41
2022-10-17T20:21:04.242Z,15.41
2022-10-17T20:23:30.776Z,15.44
2022-10-17T20:26:06.785Z,15.43
2022-10-17T20:28:46.107Z,15.43
2022-10-17T20:31:13.194Z,15.43
2022-10-17T20:33:41.429Z,15.41
2022-10-17T20:36:09.732Z,15.39
2022-10-17T20:38:36.308Z,15.39
2022-10-17T20:41:04.521Z,15.41
2022-10-17T20:43:31.245Z,15.43
2022-10-17T20:46:04.622Z,15.39
2022-10-17T20:48:37.389Z,15.40
2022-10-17T20:51:08.973Z,15.39
2022-10-17T20:53:37.412Z,15.44
2022-10-17T20:56:06.741Z,15.38
2022-10-17T20:58:33.342Z,15.41
2022-10-17T21:01:05.860Z,15.40
2022-10-17T21:03:35.323Z,15.42
2022-10-17T21:06:01.917Z,15.37
2022-10-17T21:08:28.285Z,15.39
2022-10-17T21:10:54.663Z,15.37
2022-10-17T21:13:21.116Z,15.34
2022-10-17T21:15:47.499Z,15.38
2022-10-17T21:18:13.853Z,15.39
2022-10-17T21:20:40.203Z,15.35
2022-10-17T21:23:06.612Z,15.35
2022-10-17T21:25:33.019Z,15.31
2022-10-17T21:27:59.519Z,15.33
2022-10-17T21:30:25.892Z,15.32
2022-10-17T21:32:55.621Z,15.30
2022-10-17T21:35:22.190Z,15.27
2022-10-17T21:37:48.857Z,15.29
2022-10-17T21:40:15.302Z,15.29
2022-10-17T21:42:41.629Z,15.26
2022-10-17T21:45:15.459Z,15.25
2022-10-17T21:48:11.104Z,15.22
2022-10-17T21:50:33.191Z,15.24
2022-10-17T21:52:59.559Z,15.23
2022-10-17T21:55:25.975Z,15.16
2022-10-17T21:57:52.383Z,15.14
2022-10-17T22:00:18.936Z,15.20
2022-10-17T22:02:45.311Z,15.21
2022-10-17T22:05:11.663Z,15.26
2022-10-17T22:07:38.098Z,15.20
2022-10-17T22:10:04.889Z,15.22
2022-10-17T22:12:31.585Z,15.15
2022-10-17T22:14:58.120Z,15.14
2022-10-17T22:17:24.480Z,15.16
2022-10-17T22:19:50.850Z,15.18
2022-10-17T22:22:17.205Z,15.18
2022-10-17T22:24:43.588Z,15.22
2022-10-17T22:27:10.369Z,15.18
2022-10-17T22:29:36.852Z,15.20
2022-10-17T22:32:03.261Z,15.18
2022-10-17T22:34:29.631Z,15.22
2022-10-17T22:36:56.119Z,15.18
2022-10-17T22:39:22.486Z,15.19
2022-10-17T22:41:48.863Z,15.21
2022-10-17T22:44:15.227Z,15.21
2022-10-17T22:46:41.713Z,15.19
2022-10-17T22:49:08.450Z,15.20
2022-10-17T22:51:34.922Z,15.20
2022-10-17T22:54:01.297Z,15.21
2022-10-17T22:56:27.748Z,15.20
2022-10-17T22:58:54.141Z,15.12
2022-10-17T23:01:23.527Z,15.13
2022-10-17T23:03:50.838Z,15.14
2022-10-17T23:06:17.631Z,15.15
2022-10-17T23:08:44.071Z,15.17
2022-10-17T23:11:12.302Z,15.16
2022-10-17T23:13:40.643Z,15.17
2022-10-17T23:16:08.089Z,15.18
2022-10-17T23:18:34.711Z,15.13
2022-10-17T23:21:01.274Z,15.06
2022-10-17T23:23:27.643Z,15.05
2022-10-17T23:25:54.037Z,15.04
2022-10-17T23:28:20.447Z,15.06
2022-10-17T23:30:46.856Z,15.03
2022-10-17T23:33:13.964Z,14.99
2022-10-17T23:35:41.139Z,15.04
2022-10-17T23:38:07.841Z,15.07
2022-10-17T23:40:35.252Z,15.07
2022-10-17T23:43:01.965Z,15.03
2022-10-17T23:45:28.390Z,15.03
2022-10-17T23:47:54.759Z,15.00
2022-10-17T23:50:21.119Z,15.03
2022-10-17T23:52:47.490Z,15.00
2022-10-17T23:55:13.889Z,15.03
2022-10-17T23:57:40.271Z,15.00
